Time;durP1;ratioP1;P1;durP2;ratioP2;P2;SDS_P1;SDS_P2;PMS_P1;PMS_P2;Temp;Humidity;BMP_temperature;BMP_pressure;BME280_temperature;BME280_humidity;BME280_pressure;Samples;Min_cycle;Max_cycle;Signal;HPM_P1;HPM_P2
2021/07/30 00:00:25;;;;;;;20.13;10.53;;;;;;;25.27;60.06;100762.06;5111331;28;20174;-60
2021/07/30 00:02:50;;;;;;;15.47;10.63;;;;;;;25.72;60.14;100830.50;5110740;28;20201;-60
2021/07/30 00:05:16;;;;;;;16.77;11.13;;;;;;;25.54;60.48;100819.84;5111023;28;20179;-60
2021/07/30 00:07:44;;;;;;;22.67;12.07;;;;;;;25.17;60.69;100774.28;5109937;28;20170;-60
2021/07/30 00:10:10;;;;;;;28.73;12.33;;;;;;;25.71;60.70;100854.50;5110590;28;20174;-60
2021/07/30 00:12:35;;;;;;;19.87;11.03;;;;;;;25.71;60.88;100857.34;5110833;28;20724;-60
2021/07/30 00:15:01;;;;;;;19.60;11.33;;;;;;;25.68;61.04;100858.38;5110853;28;20174;-60
2021/07/30 00:17:26;;;;;;;19.53;10.83;;;;;;;25.69;60.88;100857.88;5110151;28;20178;-60
2021/07/30 00:19:52;;;;;;;19.57;11.17;;;;;;;25.30;61.11;100802.78;5110762;28;20174;-60
2021/07/30 00:22:17;;;;;;;14.80;10.47;;;;;;;25.23;61.13;100789.94;5110890;28;20265;-60
2021/07/30 00:24:43;;;;;;;17.37;10.83;;;;;;;25.70;61.17;100859.41;5110859;28;20198;-60
2021/07/30 00:27:08;;;;;;;15.70;10.90;;;;;;;25.74;61.02;100864.81;5109935;28;20170;-60
2021/07/30 00:29:34;;;;;;;16.73;10.90;;;;;;;25.55;61.32;100873.25;5114022;28;20205;-60
2021/07/30 00:31:59;;;;;;;17.20;11.07;;;;;;;25.58;61.44;100860.06;5114533;28;20177;-59
2021/07/30 00:34:24;;;;;;;18.97;11.00;;;;;;;25.54;61.28;100865.25;5114702;28;20227;-60
2021/07/30 00:36:50;;;;;;;19.67;11.10;;;;;;;25.48;61.44;100867.38;5113549;28;20166;-60
2021/07/30 00:39:15;;;;;;;22.50;11.37;;;;;;;25.43;61.63;100859.69;5114576;28;20185;-60
2021/07/30 00:41:41;;;;;;;17.90;10.60;;;;;;;25.36;61.66;100858.19;5114190;28;20185;-60
2021/07/30 00:44:07;;;;;;;14.43;11.13;;;;;;;25.42;61.68;100863.78;5114491;28;20255;-60
2021/07/30 00:46:34;;;;;;;17.83;11.33;;;;;;;25.39;61.77;100862.03;5113629;28;20294;-60
2021/07/30 00:49:00;;;;;;;19.33;11.43;;;;;;;25.44;61.80;100859.13;5114288;28;20350;-60
2021/07/30 00:51:27;;;;;;;17.80;11.23;;;;;;;25.45;61.65;100857.84;5114358;28;20377;-60
2021/07/30 00:53:54;;;;;;;19.30;11.00;;;;;;;25.31;61.72;100849.72;5114289;28;20223;-60
2021/07/30 00:56:19;;;;;;;17.57;11.77;;;;;;;25.37;62.09;100867.44;5113260;28;20174;-60
2021/07/30 00:58:46;;;;;;;19.37;10.90;;;;;;;25.37;62.03;100862.56;5113990;28;20190;-60
2021/07/30 01:01:13;;;;;;;15.77;11.00;;;;;;;25.38;61.84;100869.78;5114233;28;20167;-60
2021/07/30 01:03:39;;;;;;;20.23;11.70;;;;;;;25.33;61.56;100864.16;5114140;28;20281;-60
2021/07/30 01:06:05;;;;;;;16.83;11.07;;;;;;;25.29;61.62;100864.41;5113134;28;20265;-60
2021/07/30 01:08:30;;;;;;;17.70;11.10;;;;;;;25.24;60.80;100859.53;5113879;28;20270;-60
2021/07/30 01:10:56;;;;;;;22.93;11.30;;;;;;;25.22;60.85;100855.69;5113584;28;20185;-60
2021/07/30 01:13:21;;;;;;;19.30;11.00;;;;;;;25.20;61.42;100855.47;5114249;28;20174;-59
2021/07/30 01:15:47;;;;;;;17.80;11.50;;;;;;;24.81;61.46;100801.09;5113352;28;20177;-60
2021/07/30 01:18:12;;;;;;;16.53;10.90;;;;;;;25.22;61.45;100862.13;5113541;28;20717;-60
2021/07/30 01:20:41;;;;;;;17.17;10.87;;;;;;;25.21;61.40;100857.00;5113923;28;20227;-60
2021/07/30 01:23:09;;;;;;;17.50;11.67;;;;;;;24.63;61.24;100776.25;5113530;28;20197;-60
2021/07/30 01:25:35;;;;;;;18.47;10.90;;;;;;;25.16;61.26;100858.59;5113457;28;20174;-61
2021/07/30 01:28:00;;;;;;;15.10;11.03;;;;;;;25.18;61.34;100853.13;5112832;28;20516;-60
2021/07/30 01:30:26;;;;;;;14.53;10.87;;;;;;;24.94;61.59;100823.94;5113539;28;20178;-60
2021/07/30 01:32:52;;;;;;;21.27;11.37;;;;;;;24.84;61.58;100812.19;5113393;28;20170;-60
2021/07/30 01:35:18;;;;;;;22.83;11.87;;;;;;;25.10;61.46;100857.84;5113551;28;20178;-60
2021/07/30 01:37:43;;;;;;;19.20;11.80;;;;;;;25.08;61.50;100857.59;5112599;28;20175;-60
2021/07/30 01:40:09;;;;;;;18.67;11.40;;;;;;;24.72;61.43;100804.28;5112355;28;20182;-60
2021/07/30 01:42:36;;;;;;;15.00;10.77;;;;;;;25.03;61.62;100854.81;5113074;28;20222;-60
2021/07/30 01:45:03;;;;;;;18.03;11.30;;;;;;;24.99;61.52;100849.44;5113225;28;20162;-60
2021/07/30 01:47:31;;;;;;;25.80;11.63;;;;;;;24.92;61.49;100850.00;5112460;28;20178;-60
2021/07/30 01:49:56;;;;;;;26.50;11.80;;;;;;;24.86;61.31;100854.16;5113137;28;20194;-60
2021/07/30 01:52:22;;;;;;;19.50;11.57;;;;;;;24.77;61.42;100849.56;5113095;28;20235;-60
2021/07/30 01:54:47;;;;;;;22.33;11.67;;;;;;;24.73;61.83;100849.09;5113107;28;20162;-60
2021/07/30 01:57:13;;;;;;;21.30;12.37;;;;;;;24.33;62.25;100817.88;5112184;28;20178;-60
2021/07/30 01:59:41;;;;;;;19.97;12.13;;;;;;;24.44;62.42;100846.91;5112997;28;20178;-60
2021/07/30 02:02:07;;;;;;;26.60;13.97;;;;;;;24.49;62.41;100860.28;5112876;28;20177;-61
2021/07/30 02:04:32;;;;;;;32.30;15.67;;;;;;;24.42;62.67;100851.56;5094627;28;20186;-60
2021/07/30 02:06:58;;;;;;;31.43;15.53;;;;;;;24.36;62.81;100853.66;5111814;28;20622;-60
2021/07/30 02:09:23;;;;;;;25.77;15.83;;;;;;;24.35;63.23;100860.59;5112819;28;20171;-59
2021/07/30 02:11:53;;;;;;;24.60;14.87;;;;;;;24.30;63.38;100853.66;5112788;28;20249;-60
2021/07/30 02:14:20;;;;;;;28.93;15.70;;;;;;;24.24;63.69;100857.81;5112772;28;20171;-60
2021/07/30 02:16:51;;;;;;;26.37;14.80;;;;;;;24.15;63.99;100855.28;5111900;28;20243;-60
2021/07/30 02:19:18;;;;;;;26.60;14.90;;;;;;;24.22;63.82;100858.34;5112775;28;20180;-60
2021/07/30 02:21:48;;;;;;;27.10;13.23;;;;;;;24.22;63.82;100863.22;5112604;28;20226;-60
2021/07/30 02:24:14;;;;;;;21.40;13.20;;;;;;;24.05;63.92;100837.06;5112344;28;20193;-60
2021/07/30 02:26:40;;;;;;;19.93;12.93;;;;;;;24.07;63.83;100829.56;5111626;28;20544;-60
2021/07/30 02:29:06;;;;;;;20.13;13.50;;;;;;;23.58;63.80;100741.97;5112124;28;20189;-60
2021/07/30 02:31:32;;;;;;;22.70;13.40;;;;;;;24.29;64.01;100854.19;5112344;28;20231;-60
2021/07/30 02:33:57;;;;;;;20.13;12.97;;;;;;;24.31;64.03;100851.63;5112373;28;20163;-60
2021/07/30 02:36:23;;;;;;;23.77;13.37;;;;;;;24.33;63.70;100863.97;5111481;28;20175;-61
2021/07/30 02:38:49;;;;;;;24.93;13.03;;;;;;;24.37;63.59;100858.78;5112098;28;20178;-60
2021/07/30 02:41:18;;;;;;;25.87;13.67;;;;;;;24.36;63.41;100854.41;5112183;28;20212;-60
2021/07/30 02:43:45;;;;;;;20.53;12.80;;;;;;;24.36;63.28;100857.25;5111967;28;20274;-60
2021/07/30 02:46:11;;;;;;;26.13;13.00;;;;;;;24.30;63.27;100855.75;5111377;28;20210;-60
2021/07/30 02:48:36;;;;;;;19.33;12.90;;;;;;;24.17;63.71;100849.88;5112139;28;20178;-60
2021/07/30 02:51:02;;;;;;;20.40;12.17;;;;;;;24.15;64.23;100860.94;5111463;28;20170;-61
2021/07/30 02:53:28;;;;;;;18.93;12.50;;;;;;;24.16;64.20;100865.31;5111367;28;20463;-60
2021/07/30 02:55:54;;;;;;;18.70;12.40;;;;;;;24.17;64.44;100864.03;5111112;28;20177;-60
2021/07/30 02:58:19;;;;;;;21.80;12.53;;;;;;;24.14;64.28;100846.00;5112055;28;20181;-60
2021/07/30 03:00:44;;;;;;;19.03;12.07;;;;;;;24.23;64.47;100861.94;5111742;28;20175;-60
2021/07/30 03:03:10;;;;;;;22.67;12.23;;;;;;;24.02;64.35;100830.38;5111764;28;20194;-60
2021/07/30 03:05:36;;;;;;;25.43;13.20;;;;;;;24.19;64.42;100858.59;5111902;28;20178;-60
2021/07/30 03:08:01;;;;;;;22.80;11.77;;;;;;;24.30;64.07;100862.16;5110771;28;20556;-60
2021/07/30 03:10:26;;;;;;;24.87;13.20;;;;;;;24.33;64.00;100863.19;5111403;28;20655;-60
2021/07/30 03:12:52;;;;;;;20.83;12.40;;;;;;;24.33;64.03;100866.00;5111460;28;20173;-60
2021/07/30 03:15:17;;;;;;;21.10;12.17;;;;;;;24.26;64.23;100875.06;5111795;28;20186;-60
2021/07/30 03:17:43;;;;;;;22.77;12.50;;;;;;;24.25;64.25;100867.88;5110608;28;20243;-60
2021/07/30 03:20:09;;;;;;;23.00;13.30;;;;;;;24.16;64.87;100874.56;5111553;28;20579;-60
2021/07/30 03:22:34;;;;;;;22.87;12.53;;;;;;;23.95;64.74;100856.34;5111495;28;20213;-60
2021/07/30 03:25:00;;;;;;;21.13;12.47;;;;;;;24.11;64.06;100875.34;5111263;28;20683;-60
2021/07/30 03:27:26;;;;;;;22.30;12.23;;;;;;;24.17;64.05;100881.00;5110690;28;20251;-60
2021/07/30 03:29:52;;;;;;;27.47;12.97;;;;;;;23.41;64.03;100770.31;5111217;28;20267;-61
2021/07/30 03:32:18;;;;;;;22.17;12.87;;;;;;;23.72;64.15;100806.75;5111250;28;20178;-60
2021/07/30 03:34:45;;;;;;;20.60;13.30;;;;;;;24.21;64.05;100887.94;5111395;28;20266;-60
2021/07/30 03:37:12;;;;;;;23.63;13.30;;;;;;;23.82;64.21;100839.16;5098018;28;20262;-60
2021/07/30 03:39:37;;;;;;;19.03;12.87;;;;;;;24.18;64.44;100888.22;5107170;28;20171;-60
2021/07/30 03:42:03;;;;;;;21.77;12.43;;;;;;;24.21;64.06;100892.84;5110752;28;20217;-60
2021/07/30 03:44:29;;;;;;;21.57;12.60;;;;;;;24.26;63.80;100889.22;5111237;28;20725;-60
2021/07/30 03:46:54;;;;;;;19.03;12.70;;;;;;;24.04;64.02;100853.25;5110184;28;20291;-60
2021/07/30 03:49:20;;;;;;;23.80;13.07;;;;;;;24.32;63.95;100889.97;5111223;28;20223;-60
2021/07/30 03:51:45;;;;;;;22.53;12.10;;;;;;;24.30;64.00;100884.06;5110961;28;20235;-60
2021/07/30 03:54:11;;;;;;;23.50;12.87;;;;;;;23.90;63.81;100814.69;5111081;28;20170;-60
2021/07/30 03:56:41;;;;;;;23.70;12.23;;;;;;;24.47;63.64;100893.25;5110325;28;20170;-60
2021/07/30 03:59:07;;;;;;;19.10;12.60;;;;;;;24.55;63.48;100888.56;5110860;28;20178;-60
2021/07/30 04:01:33;;;;;;;20.77;12.73;;;;;;;24.16;62.97;100825.69;5111048;28;20174;-60
2021/07/30 04:03:58;;;;;;;21.10;12.40;;;;;;;24.45;63.42;100871.09;5113085;28;20196;-60
2021/07/30 04:06:24;;;;;;;24.97;13.17;;;;;;;23.98;63.51;100787.41;5114583;28;20597;-60
2021/07/30 04:08:49;;;;;;;21.33;12.73;;;;;;;24.77;63.36;100900.59;5114643;28;20439;-60
2021/07/30 04:11:15;;;;;;;21.47;12.63;;;;;;;24.84;63.17;100893.59;5114960;28;20189;-60
2021/07/30 04:13:40;;;;;;;23.87;12.70;;;;;;;24.88;62.65;100894.84;5115255;28;20170;-60
2021/07/30 04:16:07;;;;;;;27.23;13.03;;;;;;;24.94;62.46;100895.59;5113965;28;20223;-60
2021/07/30 04:18:33;;;;;;;24.93;12.27;;;;;;;24.95;61.95;100887.84;5115135;28;20175;-61
2021/07/30 04:20:59;;;;;;;21.70;12.33;;;;;;;25.04;61.67;100893.22;5114907;28;20691;-60
2021/07/30 04:23:25;;;;;;;23.87;11.43;;;;;;;24.97;62.14;100882.44;5114701;28;20273;-61
2021/07/30 04:25:50;;;;;;;22.07;12.13;;;;;;;25.17;61.47;100901.91;5114148;28;20574;-59
2021/07/30 04:28:16;;;;;;;25.30;12.23;;;;;;;25.13;61.13;100887.97;5114864;28;20607;-60
2021/07/30 04:30:42;;;;;;;23.00;11.80;;;;;;;25.21;60.93;100893.84;5114777;28;20185;-60
2021/07/30 04:33:09;;;;;;;18.87;12.20;;;;;;;25.20;61.28;100898.00;5114621;28;20660;-60
2021/07/30 04:35:38;;;;;;;20.00;12.17;;;;;;;25.29;60.98;100909.81;5114723;28;20174;-60
2021/07/30 04:38:04;;;;;;;26.77;12.63;;;;;;;25.16;61.32;100871.97;5113969;28;20218;-59
2021/07/30 04:40:29;;;;;;;26.87;12.67;;;;;;;25.40;61.85;100906.13;5114710;28;20327;-60
2021/07/30 04:42:55;;;;;;;24.90;12.93;;;;;;;25.16;61.45;100866.31;5113895;28;20226;-60
2021/07/30 04:45:21;;;;;;;21.90;12.63;;;;;;;25.43;61.82;100913.59;5105684;28;20652;-60
2021/07/30 04:47:46;;;;;;;24.30;12.33;;;;;;;25.48;61.48;100916.38;5107412;28;20186;-60
2021/07/30 04:50:12;;;;;;;23.83;12.03;;;;;;;25.55;61.15;100912.97;5111202;28;20178;-60
2021/07/30 04:52:38;;;;;;;24.13;11.30;;;;;;;25.62;60.25;100914.44;5113837;28;20623;-60
2021/07/30 04:55:04;;;;;;;24.50;11.40;;;;;;;25.66;60.25;100917.78;5114014;28;20603;-59
2021/07/30 04:57:29;;;;;;;23.07;10.73;;;;;;;25.57;60.04;100893.34;5113310;28;20178;-60
2021/07/30 04:59:55;;;;;;;26.93;11.00;;;;;;;25.74;59.78;100905.28;5113955;28;20190;-60
2021/07/30 05:02:20;;;;;;;24.63;11.00;;;;;;;25.83;59.95;100915.53;5113854;28;20674;-60
2021/07/30 05:04:46;;;;;;;20.97;10.93;;;;;;;25.89;59.98;100913.44;5113733;28;20705;-60
2021/07/30 05:07:11;;;;;;;29.10;11.57;;;;;;;25.48;59.79;100853.94;5091492;28;20190;-60
2021/07/30 05:09:37;;;;;;;24.53;11.63;;;;;;;26.01;59.96;100914.88;5096601;28;20191;-60
2021/07/30 05:12:02;;;;;;;22.17;11.40;;;;;;;26.07;59.76;100918.41;5131665;27;20262;-60
2021/07/30 05:14:28;;;;;;;24.43;11.33;;;;;;;26.19;59.46;100914.94;5106493;28;20186;-60
2021/07/30 05:16:53;;;;;;;21.83;11.10;;;;;;;26.27;58.99;100918.72;5114987;27;20204;-60
2021/07/30 05:19:19;;;;;;;23.47;10.77;;;;;;;26.19;58.84;100917.78;5094207;28;20182;-60
2021/07/30 05:21:44;;;;;;;22.23;10.13;;;;;;;26.29;59.14;100933.16;5113108;28;20175;-60
2021/07/30 05:24:10;;;;;;;20.20;9.97;;;;;;;26.28;58.61;100920.25;5108556;28;20709;-60
2021/07/30 05:26:35;;;;;;;19.10;10.03;;;;;;;26.37;58.89;100930.47;5111105;28;20277;-60
2021/07/30 05:29:01;;;;;;;21.97;10.07;;;;;;;26.12;58.99;100875.00;5093666;28;20174;-60
2021/07/30 05:31:28;;;;;;;24.83;9.97;;;;;;;26.57;58.66;100941.38;5112618;28;20180;-60
2021/07/30 05:33:53;;;;;;;26.53;10.60;;;;;;;26.75;58.03;100934.94;5112740;28;20175;-60
2021/07/30 05:36:20;;;;;;;21.50;10.00;;;;;;;26.87;57.76;100944.88;5111465;28;20232;-60
2021/07/30 05:38:47;;;;;;;19.93;9.87;;;;;;;26.86;57.97;100946.19;5111369;28;20727;-60
2021/07/30 05:41:14;;;;;;;21.97;10.77;;;;;;;26.91;58.09;100948.16;5113099;28;20178;-60
2021/07/30 05:43:41;;;;;;;24.67;10.83;;;;;;;26.97;58.47;100957.41;5112369;28;20217;-60
2021/07/30 05:46:07;;;;;;;23.20;11.73;;;;;;;26.26;57.93;100846.13;5111453;28;20189;-60
2021/07/30 05:48:33;;;;;;;21.67;11.77;;;;;;;26.97;58.29;100946.78;5111897;28;20185;-60
2021/07/30 05:50:58;;;;;;;21.83;11.80;;;;;;;26.93;58.12;100934.19;5111604;28;20540;-60
2021/07/30 05:53:24;;;;;;;21.90;12.27;;;;;;;26.49;58.34;100870.13;5112629;28;20243;-60
2021/07/30 05:55:50;;;;;;;19.73;12.60;;;;;;;26.43;58.59;100855.25;5111631;28;20202;-60
2021/07/30 05:58:15;;;;;;;20.77;12.43;;;;;;;27.26;58.44;100962.16;5111510;28;20613;-59
2021/07/30 06:00:41;;;;;;;18.07;12.23;;;;;;;27.33;57.71;100955.88;5112007;28;20170;-60
2021/07/30 06:03:07;;;;;;;19.50;12.40;;;;;;;27.30;57.95;100966.25;5111813;28;20229;-61
2021/07/30 06:05:33;;;;;;;21.63;12.93;;;;;;;26.81;57.77;100896.59;5112613;28;20174;-60
2021/07/30 06:07:59;;;;;;;20.48;12.68;;;;;;;27.28;57.87;100965.25;5110321;28;20178;-60
2021/07/30 06:10:25;;;;;;;24.47;13.60;;;;;;;27.25;58.14;100950.03;5111397;28;20212;-60
2021/07/30 06:12:52;;;;;;;25.27;13.50;;;;;;;27.25;58.44;100955.72;5112171;28;20178;-60
2021/07/30 06:15:22;;;;;;;25.53;14.10;;;;;;;26.93;57.94;100891.53;5111985;28;20167;-60
2021/07/30 06:17:48;;;;;;;22.40;12.70;;;;;;;27.60;57.36;100946.91;5110101;28;20565;-60
2021/07/30 06:20:14;;;;;;;27.30;13.55;;;;;;;27.64;56.82;100947.31;5111682;28;20170;-60
2021/07/30 06:22:39;;;;;;;21.25;14.02;;;;;;;27.52;57.94;100956.59;5110898;28;20265;-60
2021/07/30 06:25:06;;;;;;;22.13;13.43;;;;;;;27.62;57.89;100949.94;5111366;28;20202;-59
2021/07/30 06:27:34;;;;;;;25.15;13.40;;;;;;;27.45;57.40;100906.00;5109384;28;20190;-60
2021/07/30 06:30:01;;;;;;;23.63;12.85;;;;;;;28.09;57.29;100962.34;5111434;28;20671;-60
2021/07/30 06:32:26;;;;;;;20.15;13.27;;;;;;;28.22;56.36;100959.53;5111078;28;20624;-60
2021/07/30 06:34:52;;;;;;;21.03;13.20;;;;;;;28.22;56.13;100936.72;5111656;28;20361;-60
2021/07/30 06:37:17;;;;;;;23.23;12.98;;;;;;;28.50;55.37;100954.06;5109754;28;20720;-60
2021/07/30 06:39:43;;;;;;;23.20;12.40;;;;;;;28.61;54.94;100948.13;5111416;28;20175;-60
2021/07/30 06:42:08;;;;;;;22.20;11.55;;;;;;;28.73;55.30;100958.00;5110449;28;20225;-60
2021/07/30 06:44:34;;;;;;;18.88;11.88;;;;;;;28.94;55.04;100960.91;5093024;28;20206;-60
2021/07/30 06:46:59;;;;;;;25.73;12.00;;;;;;;29.01;54.96;100963.91;5109370;28;20177;-60
2021/07/30 06:49:25;;;;;;;22.67;11.73;;;;;;;29.20;52.69;100952.31;5111435;28;20239;-60
2021/07/30 06:51:50;;;;;;;23.85;11.63;;;;;;;29.33;52.99;100955.88;5110266;28;20643;-61
2021/07/30 06:54:16;;;;;;;22.80;11.85;;;;;;;29.43;52.54;100971.22;5110934;28;20170;-60
2021/07/30 06:56:45;;;;;;;23.25;11.35;;;;;;;28.81;53.63;100875.38;5109953;28;20659;-61
2021/07/30 06:59:11;;;;;;;20.10;11.15;;;;;;;29.62;52.89;100965.34;5110995;28;20174;-60
2021/07/30 07:01:37;;;;;;;22.02;11.25;;;;;;;29.80;52.20;100967.22;5111031;28;20314;-60
2021/07/30 07:04:03;;;;;;;18.70;11.13;;;;;;;29.48;52.52;100898.94;5110245;28;20208;-60
2021/07/30 07:06:28;;;;;;;25.67;11.45;;;;;;;30.07;52.62;100952.22;5109379;28;20190;-60
2021/07/30 07:08:55;;;;;;;17.58;10.82;;;;;;;30.23;52.24;100958.81;5110834;28;20193;-60
2021/07/30 07:11:21;;;;;;;18.17;10.88;;;;;;;30.34;50.92;100958.50;5110708;28;20174;-60
2021/07/30 07:13:46;;;;;;;21.45;11.07;;;;;;;30.44;50.83;100962.38;5110289;28;20173;-60
2021/07/30 07:16:12;;;;;;;18.77;10.85;;;;;;;30.56;51.00;100963.63;5109636;28;20178;-60
2021/07/30 07:18:37;;;;;;;20.58;10.30;;;;;;;30.27;50.73;100905.69;5110355;28;20655;-61
2021/07/30 07:21:03;;;;;;;20.30;10.73;;;;;;;30.77;50.86;100959.34;5110486;28;20217;-60
2021/07/30 07:23:28;;;;;;;20.42;10.65;;;;;;;30.86;50.55;100958.09;5109688;28;20198;-60
2021/07/30 07:25:54;;;;;;;22.42;10.52;;;;;;;30.94;49.98;100953.91;5109973;28;20182;-60
2021/07/30 07:28:19;;;;;;;19.52;10.45;;;;;;;30.99;48.85;100955.06;5098509;27;20656;-60
2021/07/30 07:30:45;;;;;;;21.10;10.27;;;;;;;31.10;48.57;100951.84;5098756;28;20214;-60
2021/07/30 07:33:10;;;;;;;27.30;10.60;;;;;;;31.19;48.74;100951.31;5116832;27;20527;-61
2021/07/30 07:35:36;;;;;;;22.85;11.20;;;;;;;31.22;48.75;100959.56;5130691;27;20173;-60
2021/07/30 07:38:04;;;;;;;19.80;10.30;;;;;;;31.23;48.32;100963.19;5090019;27;20664;-60
2021/07/30 07:40:29;;;;;;;19.27;10.02;;;;;;;31.37;47.95;100945.28;5088984;28;20171;-60
2021/07/30 07:42:56;;;;;;;20.98;10.05;;;;;;;31.52;48.12;100953.91;5099358;28;20613;-60
2021/07/30 07:45:22;;;;;;;20.15;10.23;;;;;;;31.60;48.14;100951.06;5109714;28;20243;-61
2021/07/30 07:47:48;;;;;;;22.27;9.68;;;;;;;31.71;47.46;100942.84;5107004;28;20181;-60
2021/07/30 07:50:13;;;;;;;22.45;9.95;;;;;;;31.82;47.03;100956.81;5106987;28;20174;-60
2021/07/30 07:52:39;;;;;;;24.60;10.38;;;;;;;31.56;46.32;100897.00;5106683;28;20174;-60
2021/07/30 07:55:07;;;;;;;20.20;10.15;;;;;;;31.90;45.94;100946.13;5109590;28;20189;-60
2021/07/30 07:57:33;;;;;;;19.27;10.48;;;;;;;31.99;45.32;100939.81;5102785;28;20180;-61
2021/07/30 07:59:58;;;;;;;22.55;10.43;;;;;;;32.16;45.28;100942.09;5087694;28;20683;-61
2021/07/30 08:02:24;;;;;;;19.38;9.98;;;;;;;32.27;45.22;100938.84;5098102;28;20192;-60
2021/07/30 08:04:49;;;;;;;19.92;9.77;;;;;;;32.34;44.71;100935.22;5116643;28;20330;-60
2021/07/30 08:07:17;;;;;;;22.30;10.32;;;;;;;32.22;45.22;100928.31;5097689;28;20213;-60
2021/07/30 08:09:44;;;;;;;19.58;9.73;;;;;;;31.95;44.94;100876.38;5099635;28;20228;-60
2021/07/30 08:12:09;;;;;;;16.55;9.23;;;;;;;31.97;44.30;100890.91;5105431;28;20182;-60
2021/07/30 08:14:34;;;;;;;20.65;9.93;;;;;;;32.27;44.51;100939.63;5106937;28;20189;-61
2021/07/30 08:17:00;;;;;;;20.25;9.80;;;;;;;32.37;44.53;100931.19;5103056;28;20703;-60
2021/07/30 08:19:26;;;;;;;17.65;9.70;;;;;;;32.57;45.34;100938.78;5108568;28;20178;-61
2021/07/30 08:21:51;;;;;;;18.60;9.20;;;;;;;32.76;44.34;100927.63;5106465;28;20186;-60
2021/07/30 08:24:17;;;;;;;19.58;8.75;;;;;;;32.89;43.20;100947.47;5107810;28;20199;-61
2021/07/30 08:26:42;;;;;;;18.13;8.57;;;;;;;33.05;42.99;100937.44;5099279;28;20185;-60
2021/07/30 08:29:08;;;;;;;21.17;8.82;;;;;;;32.99;41.55;100920.44;5106431;28;20662;-60
2021/07/30 08:31:33;;;;;;;19.08;8.25;;;;;;;32.93;40.73;100942.09;5107198;28;20185;-61
2021/07/30 08:33:59;;;;;;;19.75;8.60;;;;;;;32.83;42.64;100936.22;5106399;28;20174;-61
2021/07/30 08:36:24;;;;;;;14.40;5.82;;;;;;;32.74;34.67;100936.81;5106839;28;20181;-60
2021/07/30 08:38:50;;;;;;;15.07;5.93;;;;;;;32.72;36.08;100932.97;5107995;28;20254;-60
2021/07/30 08:41:20;;;;;;;15.80;6.30;;;;;;;32.76;36.23;100916.13;5107942;28;20667;-60
2021/07/30 08:43:50;;;;;;;14.88;5.97;;;;;;;33.00;37.37;100915.47;5107336;28;20222;-60
2021/07/30 08:46:16;;;;;;;14.50;6.47;;;;;;;33.11;35.64;100927.28;5065883;28;20671;-60
2021/07/30 08:48:42;;;;;;;13.02;5.90;;;;;;;33.24;37.15;100918.41;5083303;28;20194;-60
2021/07/30 08:51:09;;;;;;;13.20;6.20;;;;;;;33.20;35.58;100923.00;5111780;28;20174;-60
2021/07/30 08:53:35;;;;;;;15.50;6.18;;;;;;;33.19;34.02;100922.25;5103738;28;20175;-60
2021/07/30 08:56:03;;;;;;;12.73;6.22;;;;;;;32.92;34.54;100877.44;5109078;28;20175;-60
2021/07/30 08:58:29;;;;;;;12.93;5.72;;;;;;;33.04;34.43;100913.72;5105597;28;20236;-60
2021/07/30 09:00:54;;;;;;;16.83;6.45;;;;;;;33.16;36.35;100906.19;5111644;28;20171;-61
2021/07/30 09:03:20;;;;;;;17.00;6.40;;;;;;;33.29;35.28;100910.91;5111363;28;20198;-60
2021/07/30 09:05:47;;;;;;;11.40;5.70;;;;;;;33.38;35.60;100911.03;5111979;27;20177;-61
2021/07/30 09:08:22;;;;;;;15.93;5.63;;;;;;;33.41;34.55;100904.13;5111467;27;20178;-60
2021/07/30 09:10:47;;;;;;;14.75;5.97;;;;;;;33.59;35.89;100911.47;5106459;28;20256;-62
2021/07/30 09:13:24;;;;;;;12.50;5.93;;;;;;;33.74;34.68;100901.94;5083507;28;20254;-60
2021/07/30 09:16:11;;;;;;;10.32;5.38;;;;;;;33.76;34.83;100896.38;5090413;28;20174;-60
2021/07/30 09:18:37;;;;;;;13.55;5.97;;;;;;;33.94;33.76;100901.59;5068818;28;20178;-60
2021/07/30 09:21:31;;;;;;;16.13;5.95;;;;;;;34.02;33.77;100895.75;5090473;28;20178;-60
2021/07/30 09:24:15;;;;;;;15.95;6.10;;;;;;;34.19;35.08;100904.44;5093331;28;20627;-60
2021/07/30 09:26:53;;;;;;;14.95;6.28;;;;;;;34.01;32.11;100897.91;5104232;28;20181;-60
2021/07/30 09:29:25;;;;;;;13.57;6.22;;;;;;;33.94;33.28;100897.97;5087390;28;20175;-60
2021/07/30 09:31:54;;;;;;;11.57;5.80;;;;;;;34.01;33.52;100886.41;5108934;28;20224;-60
2021/07/30 09:34:44;;;;;;;12.45;5.63;;;;;;;34.23;32.52;100884.63;5099945;28;20663;-60
2021/07/30 09:37:13;;;;;;;11.98;5.80;;;;;;;34.12;32.42;100868.63;5098967;28;20612;-60
2021/07/30 09:39:42;;;;;;;11.80;5.78;;;;;;;33.85;31.59;100798.78;5111297;28;20262;-61
2021/07/30 09:42:16;;;;;;;12.13;5.90;;;;;;;34.55;31.30;100876.59;5110860;28;20224;-61
2021/07/30 09:44:44;;;;;;;19.60;6.75;;;;;;;34.47;30.97;100875.16;5112097;28;20206;-61
2021/07/30 09:47:14;;;;;;;14.80;5.93;;;;;;;34.60;30.89;100869.81;5109955;28;20188;-61
2021/07/30 09:49:40;;;;;;;13.57;5.50;;;;;;;34.70;30.86;100869.91;5111774;28;20166;-61
2021/07/30 09:52:11;;;;;;;14.00;5.72;;;;;;;34.59;30.80;100867.53;5110407;28;20253;-62
2021/07/30 09:54:42;;;;;;;12.75;5.40;;;;;;;34.72;31.37;100875.81;5112217;28;20175;-61
2021/07/30 09:57:09;;;;;;;14.65;5.63;;;;;;;34.64;30.42;100863.63;5103340;28;20437;-61
2021/07/30 09:59:43;;;;;;;14.52;5.90;;;;;;;34.78;30.42;100859.81;5111898;28;20194;-61
2021/07/30 10:02:14;;;;;;;12.68;5.60;;;;;;;34.78;30.68;100850.41;5110224;28;20183;-62
2021/07/30 10:04:43;;;;;;;19.02;6.30;;;;;;;34.66;29.74;100829.25;5111454;28;20300;-61
2021/07/30 10:07:12;;;;;;;14.05;6.28;;;;;;;34.87;30.11;100856.25;5103756;28;20193;-61
2021/07/30 10:09:38;;;;;;;18.33;6.93;;;;;;;34.16;29.16;100735.91;5110592;28;20204;-62
2021/07/30 10:12:05;;;;;;;16.05;6.32;;;;;;;35.09;29.13;100842.84;5111404;28;20623;-62
2021/07/30 10:14:32;;;;;;;17.50;6.75;;;;;;;35.26;28.77;100846.47;5111493;28;20181;-61
2021/07/30 10:17:02;;;;;;;12.30;6.80;;;;;;;35.36;29.63;100829.97;5110002;28;20193;-62
2021/07/30 10:19:31;;;;;;;19.27;7.13;;;;;;;35.61;28.93;100833.38;5110622;28;20216;-61
2021/07/30 10:22:02;;;;;;;15.38;7.15;;;;;;;35.76;28.42;100827.38;5111195;28;20216;-61
2021/07/30 10:24:32;;;;;;;19.00;8.15;;;;;;;35.64;26.79;100785.28;5110735;28;20186;-61
2021/07/30 10:27:03;;;;;;;15.82;8.75;;;;;;;35.84;29.38;100830.91;5108853;28;20257;-61
2021/07/30 10:30:02;;;;;;;16.08;8.50;;;;;;;35.94;29.08;100814.31;5092329;28;20705;-62
2021/07/30 10:32:50;;;;;;;16.45;8.02;;;;;;;36.09;27.46;100816.19;5101793;28;20190;-61
2021/07/30 10:35:40;;;;;;;18.88;8.52;;;;;;;36.20;26.88;100816.38;5111667;28;20527;-62
2021/07/30 10:38:20;;;;;;;15.65;8.45;;;;;;;35.98;27.01;100808.88;5108322;28;20273;-61
2021/07/30 10:40:58;;;;;;;17.75;8.25;;;;;;;36.10;27.49;100803.25;5110088;28;20557;-61
2021/07/30 10:43:27;;;;;;;17.92;8.40;;;;;;;36.24;27.92;100801.47;5110562;28;20267;-62
2021/07/30 10:46:11;;;;;;;20.33;8.25;;;;;;;36.32;27.46;100802.84;5109583;28;20178;-61
2021/07/30 10:48:41;;;;;;;21.98;8.70;;;;;;;36.07;26.74;100741.00;5110087;28;20185;-61
2021/07/30 10:51:19;;;;;;;19.67;8.10;;;;;;;36.57;25.47;100788.81;5091692;28;20565;-61
2021/07/30 10:53:47;;;;;;;14.57;7.72;;;;;;;36.88;25.17;100786.00;5109781;28;20644;-62
2021/07/30 10:56:18;;;;;;;16.83;7.78;;;;;;;37.08;26.04;100778.78;5109742;28;20185;-62
2021/07/30 10:58:49;;;;;;;19.10;8.23;;;;;;;37.34;26.98;100781.41;5109469;28;20212;-62
2021/07/30 11:01:20;;;;;;;16.85;8.85;;;;;;;37.54;26.01;100784.94;5109908;28;20257;-63
2021/07/30 11:03:49;;;;;;;20.58;9.48;;;;;;;37.75;24.57;100768.41;5109845;28;20212;-61
2021/07/30 11:06:24;;;;;;;18.85;9.77;;;;;;;37.70;25.42;100766.59;5109338;28;20432;-61
2021/07/30 11:09:02;;;;;;;27.02;9.60;;;;;;;37.68;25.57;100759.94;5108697;28;20174;-61
2021/07/30 11:11:46;;;;;;;17.58;8.35;;;;;;;37.65;22.66;100749.59;5110060;28;20174;-62